ETWM

Meppe Airport

Germany
METAR ETWM 170520Z AUTO 26006KT 9999 // ////// M00/M01 Q1018 ///
Observed Flight Rules
Dec-17 @ 05:20 UTC (an hour ago)
Wind Visibility
260° at 6 knots 10,000+ meters
Temperatures Readings
Current 0°C / 32°F
Dewpoint -1°C / 30°F
Humidity 93%
Altimeter 30.06" Hg
Pressure 1018 hPa
Elevation 21
METAR ETWM 170520Z AUTO 26006KT 9999 // ////// M00/M01 Q1018 ///
Observed Flight Rules
Dec-17 @ 05:20 UTC
(an hour ago)
Wind Visibility
260° at 6 knots 10,000+ meters
Temperature Dewpoint
0°C / 32°F -1°C / 30°F
Humidity Altimeter Pressure
93% 30.06" Hg 1018 hPa